Time;durP1;ratioP1;P1;durP2;ratioP2;P2;SDS_P1;SDS_P2;PMS_P1;PMS_P2;Temp;Humidity;BMP_temperature;BMP_pressure;BME280_temperature;BME280_humidity;BME280_pressure;Samples;Min_cycle;Max_cycle;Signal;HPM_P1;HPM_P2
2022/12/14 04:03:09;;;;;;;2.70;2.22;;;12.50;48.00;;;;;;4940516;28;45495;-57
2022/12/14 04:05:40;;;;;;;2.67;1.98;;;12.50;48.10;;;;;;4955622;28;45522;-60
2022/12/14 04:08:08;;;;;;;2.88;1.90;;;12.50;48.00;;;;;;4975006;28;45965;-57
2022/12/14 04:18:59;;;;;;;2.15;1.70;;;12.50;48.00;;;;;;4961985;28;46190;-58
2022/12/14 04:21:36;;;;;;;2.67;2.00;;;12.50;48.00;;;;;;4951935;28;45363;-59
2022/12/14 04:27:13;;;;;;;2.53;1.70;;;12.50;48.00;;;;;;4963276;28;45490;-56
2022/12/14 04:29:58;;;;;;;2.72;1.92;;;12.40;48.00;;;;;;4954711;28;46231;-56
2022/12/14 04:32:44;;;;;;;3.15;1.67;;;12.50;47.90;;;;;;4960900;28;45445;-57
2022/12/14 04:35:28;;;;;;;2.15;1.45;;;12.60;47.90;;;;;;4962264;28;44766;-58
2022/12/14 04:38:02;;;;;;;2.30;1.52;;;12.70;47.60;;;;;;4962096;28;45220;-54
2022/12/14 04:40:48;;;;;;;2.30;1.42;;;12.90;47.50;;;;;;4955684;28;46272;-55
2022/12/14 04:43:16;;;;;;;2.33;1.58;;;13.10;47.30;;;;;;4956899;28;45203;-55
2022/12/14 04:45:54;;;;;;;2.65;1.40;;;13.20;47.00;;;;;;4954814;28;45266;-56
2022/12/14 04:48:38;;;;;;;2.15;1.60;;;13.30;46.90;;;;;;4957081;28;45359;-61
2022/12/14 04:51:21;;;;;;;1.95;1.50;;;13.40;46.70;;;;;;4948443;28;45403;-59
2022/12/14 04:53:48;;;;;;;1.98;1.42;;;13.60;46.50;;;;;;4955355;28;45283;-56
2022/12/14 04:56:19;;;;;;;2.25;1.48;;;13.70;46.40;;;;;;4957146;28;45248;-61
2022/12/14 04:58:44;;;;;;;1.60;1.33;;;13.80;46.30;;;;;;4960898;28;44663;-57
2022/12/14 05:01:33;;;;;;;2.13;1.55;;;13.90;46.10;;;;;;4953574;28;46162;-54
2022/12/14 05:04:14;;;;;;;1.92;1.45;;;14.00;46.00;;;;;;4970740;28;45505;-53
2022/12/14 05:06:46;;;;;;;2.03;1.50;;;14.10;46.00;;;;;;4975688;28;45312;-58
2022/12/14 05:09:27;;;;;;;1.77;1.40;;;14.30;45.80;;;;;;4976967;28;45276;-59
2022/12/14 05:12:00;;;;;;;2.05;1.50;;;14.40;45.70;;;;;;4960269;28;46171;-54
2022/12/14 05:14:32;;;;;;;1.63;1.33;;;14.50;45.60;;;;;;4975041;28;45033;-55
2022/12/14 05:16:58;;;;;;;1.50;1.30;;;14.60;45.50;;;;;;4976717;28;45066;-53
2022/12/14 05:19:25;;;;;;;1.75;1.38;;;14.70;45.40;;;;;;4993195;28;45646;-55
2022/12/14 05:21:52;;;;;;;1.98;1.40;;;14.80;45.30;;;;;;4974767;28;47071;-57
2022/12/14 05:24:17;;;;;;;1.83;1.17;;;14.90;45.20;;;;;;4962348;28;45465;-54
2022/12/14 05:26:43;;;;;;;2.63;1.55;;;15.00;45.10;;;;;;4977832;28;45423;-56
2022/12/14 05:29:08;;;;;;;2.15;1.55;;;15.10;45.00;;;;;;4969962;28;45001;-56
2022/12/14 05:31:34;;;;;;;2.05;1.55;;;15.20;44.90;;;;;;4965983;28;45775;-67
2022/12/14 05:33:59;;;;;;;2.10;1.60;;;15.30;44.80;;;;;;4973296;28;44964;-59
2022/12/14 05:36:25;;;;;;;1.60;1.30;;;15.40;44.70;;;;;;4972784;28;45457;-54
2022/12/14 05:38:51;;;;;;;1.85;1.30;;;15.50;44.60;;;;;;4976151;28;44828;-59
2022/12/14 05:41:16;;;;;;;1.98;1.30;;;15.60;44.50;;;;;;4969637;28;48499;-57
2022/12/14 05:43:42;;;;;;;1.80;1.50;;;15.70;44.40;;;;;;4970859;28;45244;-57
2022/12/14 05:46:08;;;;;;;1.92;1.40;;;15.80;44.30;;;;;;4978960;28;45283;-58
2022/12/14 05:48:34;;;;;;;2.35;1.65;;;15.90;44.20;;;;;;4977888;28;45460;-57
2022/12/14 05:51:06;;;;;;;2.45;1.52;;;16.00;44.20;;;;;;4972320;28;45886;-58
2022/12/14 05:53:33;;;;;;;2.60;1.70;;;16.00;44.00;;;;;;4972511;28;45678;-57
2022/12/14 05:55:58;;;;;;;2.28;1.80;;;16.10;43.90;;;;;;4977845;28;45005;-60
2022/12/14 05:58:24;;;;;;;2.47;1.55;;;16.20;43.90;;;;;;4979328;28;45555;-54
2022/12/14 06:00:49;;;;;;;1.75;1.38;;;16.10;43.70;;;;;;4972087;28;45966;-59
2022/12/14 06:03:15;;;;;;;1.75;1.50;;;16.10;43.80;;;;;;4946385;28;45601;-60
2022/12/14 06:05:41;;;;;;;1.55;1.30;;;16.10;43.90;;;;;;4953773;28;45422;-54
2022/12/14 06:08:06;;;;;;;2.50;1.40;;;16.10;44.10;;;;;;4963157;28;45638;-57
2022/12/14 06:10:32;;;;;;;1.83;1.50;;;16.10;43.90;;;;;;4967631;28;45953;-58
2022/12/14 06:12:57;;;;;;;1.73;1.48;;;16.20;43.90;;;;;;4956100;28;45430;-58
2022/12/14 06:15:23;;;;;;;1.92;1.45;;;16.30;43.70;;;;;;4953942;28;45176;-57
2022/12/14 06:17:49;;;;;;;2.13;1.50;;;16.40;43.70;;;;;;4960867;28;45463;-56
2022/12/14 06:20:14;;;;;;;2.22;1.40;;;16.50;43.50;;;;;;4961091;28;47070;-56
2022/12/14 06:22:40;;;;;;;2.00;1.50;;;16.60;43.40;;;;;;4956049;28;45566;-56
2022/12/14 06:25:06;;;;;;;2.30;1.52;;;16.70;43.30;;;;;;4951885;28;44859;-60
2022/12/14 06:27:32;;;;;;;1.98;1.52;;;16.80;43.20;;;;;;4939855;28;44881;-57
2022/12/14 06:29:58;;;;;;;2.13;1.52;;;16.90;43.20;;;;;;4959641;28;46001;-59
2022/12/14 06:32:24;;;;;;;1.60;1.35;;;16.90;43.00;;;;;;4947526;28;45715;-54
2022/12/14 06:34:50;;;;;;;2.28;1.58;;;17.00;42.90;;;;;;4950719;28;45049;-60
2022/12/14 06:37:15;;;;;;;1.60;1.30;;;17.10;42.90;;;;;;4934716;28;45660;-58
2022/12/14 06:39:41;;;;;;;1.25;1.15;;;17.20;42.90;;;;;;4941353;28;47141;-60
2022/12/14 06:42:06;;;;;;;1.67;1.13;;;17.20;42.70;;;;;;4957294;28;44738;-57
2022/12/14 06:44:32;;;;;;;1.80;1.30;;;17.30;42.60;;;;;;4957366;28;45244;-58
2022/12/14 06:46:58;;;;;;;1.73;1.17;;;17.40;42.50;;;;;;4949752;28;45299;-56
2022/12/14 06:49:23;;;;;;;1.70;1.50;;;17.50;42.50;;;;;;4958223;28;46135;-57
2022/12/14 06:51:49;;;;;;;2.00;1.45;;;17.50;42.40;;;;;;4960210;28;45232;-56
2022/12/14 06:54:14;;;;;;;1.77;1.40;;;17.60;42.40;;;;;;4956573;28;45548;-62
2022/12/14 06:56:41;;;;;;;1.60;1.38;;;17.70;42.30;;;;;;4950298;28;45133;-54
2022/12/14 06:59:07;;;;;;;3.17;1.40;;;17.80;42.20;;;;;;4950756;28;46137;-57
2022/12/14 07:01:33;;;;;;;1.80;1.40;;;17.90;42.20;;;;;;4968622;28;45564;-56
2022/12/14 07:03:59;;;;;;;1.70;1.45;;;17.90;42.00;;;;;;4973753;28;45168;-57
2022/12/14 07:06:26;;;;;;;1.30;1.13;;;18.00;41.90;;;;;;4973974;28;45565;-59
2022/12/14 07:08:52;;;;;;;1.73;1.40;;;18.10;41.90;;;;;;4972639;28;45717;-59
2022/12/14 07:11:18;;;;;;;1.70;1.35;;;18.20;41.80;;;;;;4978682;28;45555;-55
2022/12/14 07:13:43;;;;;;;1.50;1.20;;;18.30;41.70;;;;;;4977537;28;44847;-55
2022/12/14 07:16:14;;;;;;;1.60;1.13;;;18.40;41.60;;;;;;4979429;28;45310;-54
2022/12/14 07:18:39;;;;;;;1.65;1.25;;;18.50;41.60;;;;;;4963395;28;46906;-55
2022/12/14 07:21:08;;;;;;;1.40;1.30;;;18.50;41.40;;;;;;4982713;28;45283;-55
2022/12/14 07:23:36;;;;;;;1.77;1.15;;;18.60;41.40;;;;;;4977339;28;45269;-55
2022/12/14 07:26:03;;;;;;;1.42;1.20;;;18.70;41.40;;;;;;4976419;28;46683;-57
2022/12/14 07:28:29;;;;;;;1.48;1.20;;;18.70;41.20;;;;;;4989695;28;46263;-57
2022/12/14 07:30:55;;;;;;;1.75;1.38;;;18.80;41.20;;;;;;4975338;28;45466;-56
2022/12/14 07:33:20;;;;;;;3.05;1.40;;;18.90;41.20;;;;;;4977887;28;45015;-56
2022/12/14 07:35:46;;;;;;;2.63;1.33;;;18.90;41.10;;;;;;4971710;28;45295;-54
2022/12/14 07:38:12;;;;;;;1.35;1.25;;;19.00;41.10;;;;;;4972779;28;46195;-63
2022/12/14 07:40:37;;;;;;;1.80;1.20;;;19.10;41.00;;;;;;4977801;28;45223;-58
2022/12/14 07:43:03;;;;;;;2.10;1.38;;;19.10;40.90;;;;;;4977017;28;44991;-53
2022/12/14 07:45:29;;;;;;;1.98;1.35;;;19.20;40.90;;;;;;4957921;28;45806;-52
2022/12/14 07:47:55;;;;;;;2.08;1.40;;;19.10;40.80;;;;;;4978456;28;46192;-55
2022/12/14 07:50:20;;;;;;;1.35;1.10;;;19.10;41.00;;;;;;4978586;28;45411;-55
2022/12/14 07:52:46;;;;;;;2.08;1.35;;;19.00;41.10;;;;;;4980082;28;45328;-56
2022/12/14 07:55:11;;;;;;;1.80;1.48;;;19.00;41.10;;;;;;4977705;28;44771;-54
2022/12/14 07:57:37;;;;;;;2.13;1.42;;;19.10;41.10;;;;;;4976529;28;46063;-57
2022/12/14 08:00:03;;;;;;;2.00;1.52;;;19.20;41.00;;;;;;4969715;28;44887;-56
2022/12/14 08:02:28;;;;;;;1.92;1.40;;;19.30;41.00;;;;;;4979784;28;45169;-59
2022/12/14 08:04:54;;;;;;;1.70;1.27;;;19.30;40.90;;;;;;4980588;28;45002;-54
2022/12/14 08:07:19;;;;;;;1.60;1.40;;;19.40;40.70;;;;;;4971931;28;45657;-61
2022/12/14 08:09:45;;;;;;;1.42;1.20;;;19.50;40.70;;;;;;4980663;28;45431;-53
2022/12/14 08:12:10;;;;;;;1.77;1.40;;;19.50;41.20;;;;;;4978101;28;45576;-59
2022/12/14 08:14:36;;;;;;;1.77;1.45;;;19.60;40.50;;;;;;4979804;28;45997;-54
2022/12/14 08:17:01;;;;;;;1.67;1.30;;;19.70;40.50;;;;;;4983627;28;46092;-58
2022/12/14 08:19:27;;;;;;;2.22;1.45;;;19.70;40.40;;;;;;4979545;28;45251;-56
2022/12/14 08:21:52;;;;;;;1.35;1.10;;;19.80;40.30;;;;;;4977365;28;45280;-54
2022/12/14 08:24:18;;;;;;;1.88;1.30;;;19.90;40.30;;;;;;4975959;28;45279;-57
2022/12/14 08:26:44;;;;;;;1.40;1.30;;;19.90;40.20;;;;;;4978685;28;45954;-56
2022/12/14 08:29:11;;;;;;;1.83;1.38;;;19.90;40.20;;;;;;4972198;28;45572;-56
2022/12/14 08:31:37;;;;;;;2.58;1.30;;;20.00;40.10;;;;;;4970999;28;45996;-55
2022/12/14 08:34:03;;;;;;;1.40;1.20;;;20.10;40.00;;;;;;4979836;28;44983;-56
2022/12/14 08:36:31;;;;;;;1.38;1.27;;;20.10;40.00;;;;;;4975762;28;45848;-55
2022/12/14 08:39:07;;;;;;;1.40;1.30;;;20.20;39.90;;;;;;4978459;28;44852;-53
2022/12/14 08:41:32;;;;;;;1.35;1.23;;;20.30;39.70;;;;;;4974873;28;45399;-56
2022/12/14 08:43:58;;;;;;;2.42;1.27;;;20.30;39.90;;;;;;4983399;28;45226;-56
2022/12/14 08:46:25;;;;;;;1.65;1.35;;;20.40;39.80;;;;;;4972880;28;46207;-59
2022/12/14 08:48:51;;;;;;;1.30;1.20;;;20.40;39.70;;;;;;4978480;28;45447;-60
2022/12/14 08:51:17;;;;;;;1.77;1.20;;;20.50;39.70;;;;;;4975035;28;45210;-59
2022/12/14 08:53:42;;;;;;;1.40;1.10;;;20.50;39.60;;;;;;4977803;28;44906;-59
2022/12/14 08:56:09;;;;;;;2.05;1.40;;;20.60;39.60;;;;;;4985529;28;46207;-54
2022/12/14 08:58:35;;;;;;;1.45;1.10;;;20.60;39.50;;;;;;4960329;28;44739;-56
2022/12/14 09:01:10;;;;;;;1.23;1.10;;;20.70;39.50;;;;;;4979294;28;45310;-61
2022/12/14 09:03:36;;;;;;;1.50;1.20;;;20.70;39.50;;;;;;4979578;28;45588;-54
2022/12/14 09:06:06;;;;;;;1.20;1.00;;;20.80;39.40;;;;;;4971412;28;46033;-58
2022/12/14 09:08:32;;;;;;;1.33;1.23;;;20.80;39.30;;;;;;4977086;28;45220;-58
2022/12/14 09:10:58;;;;;;;1.83;1.38;;;20.90;39.30;;;;;;4978759;28;44954;-56
2022/12/14 09:13:24;;;;;;;1.20;1.05;;;20.90;39.30;;;;;;4980187;28;45022;-53
2022/12/14 09:16:00;;;;;;;1.20;1.00;;;21.00;39.20;;;;;;4976996;28;45451;-56
2022/12/14 09:18:26;;;;;;;1.27;1.17;;;21.00;39.00;;;;;;4976761;28;45011;-57
2022/12/14 09:20:54;;;;;;;1.55;1.15;;;21.10;39.20;;;;;;4977692;28;44744;-64
2022/12/14 09:23:22;;;;;;;1.30;1.20;;;21.10;39.10;;;;;;4978406;28;45368;-55
2022/12/14 09:25:59;;;;;;;1.80;1.55;;;21.10;39.00;;;;;;4977859;28;46055;-56
2022/12/14 09:28:26;;;;;;;2.08;1.30;;;21.20;38.80;;;;;;4980525;28;45544;-56
2022/12/14 09:30:59;;;;;;;2.05;1.30;;;21.30;38.90;;;;;;4978238;28;45036;-58
2022/12/14 09:33:25;;;;;;;1.92;1.30;;;21.30;38.90;;;;;;4971964;28;45522;-55
2022/12/14 09:35:51;;;;;;;2.00;1.30;;;21.30;38.90;;;;;;4982375;28;45998;-54
2022/12/14 09:38:17;;;;;;;1.17;1.08;;;21.30;38.90;;;;;;4981981;28;45160;-56
2022/12/14 09:40:49;;;;;;;1.65;1.40;;;21.30;38.90;;;;;;4974601;28;45481;-58
2022/12/14 09:43:27;;;;;;;1.50;1.15;;;21.40;39.00;;;;;;4974079;28;45236;-56
2022/12/14 09:45:53;;;;;;;1.67;1.50;;;21.40;38.60;;;;;;4967098;28;46575;-57
2022/12/14 09:48:23;;;;;;;2.08;1.27;;;21.40;38.80;;;;;;4943331;28;45492;-58
2022/12/14 09:50:49;;;;;;;1.52;1.20;;;21.50;38.70;;;;;;4953549;28;45583;-53
2022/12/14 09:53:14;;;;;;;1.58;1.30;;;21.50;38.70;;;;;;4963906;28;45232;-58
2022/12/14 09:55:45;;;;;;;1.60;1.50;;;21.50;38.70;;;;;;4960257;28;46158;-56
2022/12/14 09:58:21;;;;;;;1.15;1.00;;;21.50;38.60;;;;;;4956410;28;44984;-57
2022/12/14 10:00:55;;;;;;;2.10;1.52;;;21.50;38.60;;;;;;4959977;28;45667;-57
2022/12/14 10:03:56;;;;;;;2.35;1.38;;;21.50;38.50;;;;;;4969954;28;45706;-55
2022/12/14 10:06:31;;;;;;;1.77;1.30;;;21.60;38.30;;;;;;4985410;28;47068;-58
2022/12/14 10:09:29;;;;;;;1.58;1.23;;;21.60;38.70;;;;;;4956063;28;45639;-59
2022/12/14 10:12:16;;;;;;;2.53;1.40;;;21.50;38.20;;;;;;4961393;28;45298;-57
2022/12/14 10:15:13;;;;;;;1.65;1.25;;;21.40;38.50;;;;;;4978878;28;45468;-58
2022/12/14 10:18:05;;;;;;;1.30;1.20;;;21.30;38.70;;;;;;4976502;28;45876;-60
2022/12/14 10:20:55;;;;;;;3.50;1.60;;;21.20;39.10;;;;;;4960228;28;45542;-59
2022/12/14 10:23:22;;;;;;;1.63;1.23;;;21.30;39.10;;;;;;4967223;28;45402;-54
2022/12/14 10:25:49;;;;;;;1.85;1.30;;;21.30;39.20;;;;;;4969900;28;45479;-58
2022/12/14 10:28:27;;;;;;;1.50;1.15;;;21.30;39.00;;;;;;4957541;28;47347;-57
2022/12/14 10:30:55;;;;;;;2.22;1.33;;;21.40;38.90;;;;;;4976162;28;45239;-56
2022/12/14 10:33:21;;;;;;;1.85;1.15;;;21.40;38.90;;;;;;4969877;28;45735;-59
2022/12/14 10:35:53;;;;;;;1.45;1.15;;;21.40;38.90;;;;;;4984610;28;45557;-59
2022/12/14 10:38:43;;;;;;;1.53;1.27;;;21.50;38.80;;;;;;4979143;28;46074;-58
2022/12/14 10:41:24;;;;;;;1.40;1.17;;;21.50;38.70;;;;;;4975930;28;45609;-57
2022/12/14 10:44:17;;;;;;;1.83;1.50;;;21.50;38.70;;;;;;4942292;28;45098;-60
2022/12/14 10:46:54;;;;;;;2.40;1.50;;;21.50;38.40;;;;;;4937851;28;44751;-55
2022/12/14 10:49:23;;;;;;;1.55;1.20;;;21.50;38.80;;;;;;4959228;28;45551;-60
2022/12/14 10:52:04;;;;;;;1.70;1.10;;;21.50;38.80;;;;;;4944326;28;45389;-59
2022/12/14 10:54:38;;;;;;;3.45;1.23;;;21.50;38.50;;;;;;4967394;28;45555;-60
2022/12/14 10:57:04;;;;;;;1.65;1.30;;;21.40;38.60;;;;;;4972877;28;45523;-61
2022/12/14 10:59:39;;;;;;;1.85;1.10;;;21.30;39.00;;;;;;4971918;28;45128;-60
2022/12/14 11:02:14;;;;;;;1.55;1.05;;;21.30;38.90;;;;;;4958667;28;45248;-57
2022/12/14 11:04:48;;;;;;;1.58;1.23;;;21.30;38.90;;;;;;4971199;28;45036;-58
2022/12/14 11:07:15;;;;;;;1.20;1.10;;;21.30;38.90;;;;;;4979901;28;45179;-60
2022/12/14 11:09:41;;;;;;;1.27;1.17;;;21.40;38.90;;;;;;4977584;28;46545;-61
2022/12/14 11:12:15;;;;;;;1.15;1.00;;;21.40;38.90;;;;;;4980903;28;45494;-61
2022/12/14 11:14:52;;;;;;;1.25;1.08;;;21.50;39.00;;;;;;4960473;28;44936;-59
2022/12/14 11:17:31;;;;;;;2.85;1.40;;;21.50;38.70;;;;;;4978194;28;45535;-51
2022/12/14 11:20:18;;;;;;;1.33;1.20;;;21.50;38.60;;;;;;4973658;28;45983;-57
2022/12/14 11:22:43;;;;;;;1.48;1.27;;;21.60;38.50;;;;;;4970563;28;45020;-53
2022/12/14 11:25:27;;;;;;;1.58;1.20;;;21.60;38.70;;;;;;4978146;28;45586;-57
2022/12/14 11:27:52;;;;;;;1.35;1.25;;;21.60;38.40;;;;;;4969785;28;46776;-56
2022/12/14 11:30:18;;;;;;;1.27;1.00;;;21.60;38.60;;;;;;4961661;28;45493;-60
2022/12/14 11:32:46;;;;;;;1.40;1.25;;;21.60;38.70;;;;;;4980079;28;45065;-61
2022/12/14 11:35:16;;;;;;;1.48;1.17;;;21.60;38.70;;;;;;4977603;28;45171;-55
2022/12/14 11:37:41;;;;;;;1.27;1.17;;;21.60;38.50;;;;;;4950704;28;45006;-56
2022/12/14 11:40:24;;;;;;;1.90;1.35;;;21.50;38.60;;;;;;4970375;28;46090;-59
2022/12/14 11:42:50;;;;;;;1.88;1.13;;;21.40;38.70;;;;;;4967311;28;45188;-62
2022/12/14 11:45:24;;;;;;;2.05;1.35;;;21.40;38.90;;;;;;4976165;28;45249;-63
2022/12/14 11:48:09;;;;;;;1.88;1.10;;;21.40;38.90;;;;;;4977754;28;44755;-55
2022/12/14 11:50:34;;;;;;;2.10;1.35;;;21.40;38.70;;;;;;4970908;28;46104;-57
2022/12/14 11:53:05;;;;;;;3.72;1.30;;;21.40;38.90;;;;;;4976470;28;44725;-50
2022/12/14 11:55:30;;;;;;;1.65;1.40;;;21.50;38.70;;;;;;4977101;28;45878;-58
2022/12/14 11:57:57;;;;;;;1.65;1.40;;;21.50;38.70;;;;;;4973577;28;45323;-54
2022/12/14 12:00:28;;;;;;;2.28;1.05;;;21.60;38.70;;;;;;4978086;28;45537;-60
2022/12/14 12:03:00;;;;;;;2.05;1.30;;;21.60;38.50;;;;;;4968670;28;45370;-59
2022/12/14 12:05:26;;;;;;;1.37;1.03;;;21.70;38.40;;;;;;4953237;28;45516;-62
2022/12/14 12:07:54;;;;;;;2.08;1.50;;;21.70;38.50;;;;;;4957670;28;45594;-63
2022/12/14 12:10:25;;;;;;;1.70;1.40;;;21.70;38.40;;;;;;4957840;28;46764;-63
2022/12/14 12:13:00;;;;;;;2.95;1.40;;;21.80;38.40;;;;;;4993061;28;45214;-62
2022/12/14 12:15:34;;;;;;;1.88;1.27;;;21.80;38.20;;;;;;4965811;28;45318;-62
2022/12/14 12:18:03;;;;;;;1.65;1.10;;;21.80;38.20;;;;;;4973417;28;45537;-62
2022/12/14 12:20:55;;;;;;;1.90;1.20;;;21.70;38.30;;;;;;4944561;28;47229;-63
2022/12/14 12:23:32;;;;;;;1.15;0.95;;;21.60;38.10;;;;;;4982801;28;45458;-61
2022/12/14 12:25:57;;;;;;;2.15;1.45;;;21.50;38.50;;;;;;4960090;28;45252;-62
2022/12/14 12:28:29;;;;;;;1.95;1.35;;;21.50;38.70;;;;;;4974470;28;45359;-62
2022/12/14 12:30:58;;;;;;;1.13;1.00;;;21.50;38.60;;;;;;4976119;28;46126;-62
2022/12/14 12:33:32;;;;;;;1.77;1.35;;;21.50;38.60;;;;;;4961255;28;48269;-61
2022/12/14 12:36:03;;;;;;;1.73;1.35;;;21.60;38.50;;;;;;4943513;28;45305;-62
2022/12/14 12:39:04;;;;;;;1.73;1.45;;;21.60;38.50;;;;;;4993218;28;45328;-63
2022/12/14 12:42:11;;;;;;;2.00;1.55;;;21.70;38.00;;;;;;4990921;28;45823;-61
2022/12/14 12:44:49;;;;;;;1.60;1.30;;;21.80;38.10;;;;;;4935864;28;45730;-62
2022/12/14 12:47:18;;;;;;;1.42;1.27;;;21.80;38.10;;;;;;4965419;28;45175;-62
2022/12/14 12:49:43;;;;;;;1.73;1.40;;;21.80;38.20;;;;;;4976945;28;45295;-63
2022/12/14 12:52:24;;;;;;;1.50;1.08;;;21.80;38.20;;;;;;4993326;28;45723;-64
2022/12/14 12:55:07;;;;;;;1.60;1.20;;;21.80;38.00;;;;;;4975363;28;45157;-64
2022/12/14 12:57:40;;;;;;;1.73;1.23;;;21.80;38.10;;;;;;4960261;28;44765;-62
2022/12/14 13:00:06;;;;;;;1.15;1.02;;;21.80;38.10;;;;;;4938774;28;45109;-63
2022/12/14 13:02:37;;;;;;;1.30;1.20;;;21.80;38.20;;;;;;4969106;28;46518;-63
2022/12/14 13:05:14;;;;;;;1.45;1.20;;;21.70;38.20;;;;;;4938729;28;45694;-62
2022/12/14 13:07:45;;;;;;;2.25;1.48;;;21.60;38.30;;;;;;4975000;28;45244;-62
2022/12/14 13:10:29;;;;;;;2.10;1.20;;;21.50;38.50;;;;;;4956493;28;45453;-61
2022/12/14 13:13:02;;;;;;;2.60;1.73;;;21.50;38.30;;;;;;4945934;28;45870;-61
2022/12/14 13:15:30;;;;;;;1.30;1.20;;;21.60;38.50;;;;;;4941630;28;45719;-61
2022/12/14 13:17:59;;;;;;;1.52;1.33;;;21.60;38.40;;;;;;4989036;28;45523;-63
2022/12/14 13:20:27;;;;;;;1.98;1.25;;;21.70;38.30;;;;;;4955889;28;45351;-61
2022/12/14 13:22:53;;;;;;;1.45;1.10;;;21.70;38.30;;;;;;4993559;28;47137;-63
2022/12/14 13:25:44;;;;;;;1.63;1.35;;;21.70;38.20;;;;;;4961526;28;44791;-62
2022/12/14 13:28:27;;;;;;;1.80;1.40;;;21.80;37.80;;;;;;4989571;28;44661;-63
2022/12/14 13:31:19;;;;;;;1.70;1.20;;;21.80;38.00;;;;;;4986789;28;44665;-62
2022/12/14 13:33:52;;;;;;;2.25;1.20;;;21.80;38.70;;;;;;4978358;28;46069;-63
2022/12/14 13:36:40;;;;;;;2.25;1.40;;;21.80;38.00;;;;;;4946269;28;45193;-63
2022/12/14 13:39:26;;;;;;;2.00;1.45;;;21.80;37.80;;;;;;4968125;28;45104;-64
2022/12/14 13:42:10;;;;;;;2.92;1.48;;;21.90;37.90;;;;;;4975090;28;47081;-61
2022/12/14 13:44:56;;;;;;;1.77;1.50;;;21.80;38.00;;;;;;4962948;28;46395;-62
2022/12/14 13:47:27;;;;;;;1.63;1.23;;;21.70;37.80;;;;;;4940525;28;45304;-61
2022/12/14 13:49:54;;;;;;;1.60;1.23;;;21.60;38.20;;;;;;4979107;28;45250;-60
2022/12/14 13:52:30;;;;;;;1.30;1.20;;;21.50;38.40;;;;;;4969029;28;45558;-62
2022/12/14 13:54:56;;;;;;;2.40;1.40;;;21.60;38.30;;;;;;4987593;28;45358;-62
2022/12/14 13:57:22;;;;;;;2.08;1.45;;;21.60;38.40;;;;;;4979615;28;45417;-62
2022/12/14 13:59:49;;;;;;;3.00;1.60;;;21.70;38.30;;;;;;4955418;28;45362;-64
2022/12/14 14:02:30;;;;;;;2.80;1.52;;;21.80;38.30;;;;;;4968054;28;45223;-63
2022/12/14 14:05:14;;;;;;;1.20;1.10;;;21.80;37.90;;;;;;4975856;28;45266;-61
2022/12/14 14:08:04;;;;;;;1.92;1.48;;;21.90;37.70;;;;;;4981367;28;45468;-62
2022/12/14 14:10:34;;;;;;;1.38;1.15;;;21.90;37.60;;;;;;4945628;28;45214;-62
2022/12/14 14:13:01;;;;;;;1.95;1.48;;;22.00;37.90;;;;;;4976349;28;45562;-61
2022/12/14 14:15:36;;;;;;;1.98;1.50;;;22.00;37.90;;;;;;4960531;28;45562;-61
2022/12/14 14:18:11;;;;;;;2.35;1.38;;;22.00;37.90;;;;;;4949690;28;45214;-62
2022/12/14 14:20:39;;;;;;;1.98;1.17;;;22.00;37.90;;;;;;4953876;28;45307;-62
2022/12/14 14:23:14;;;;;;;1.73;1.55;;;22.00;37.90;;;;;;4977964;28;45169;-62
2022/12/14 14:25:41;;;;;;;1.20;1.10;;;22.00;37.80;;;;;;4974391;28;45508;-62
2022/12/14 14:28:11;;;;;;;1.60;1.10;;;22.00;37.90;;;;;;4957317;28;45348;-62
2022/12/14 14:30:57;;;;;;;2.00;1.45;;;21.90;37.80;;;;;;4970908;28;46407;-62
2022/12/14 14:33:48;;;;;;;2.10;1.55;;;21.80;37.80;;;;;;4980448;28;45548;-62
2022/12/14 14:36:34;;;;;;;1.80;1.50;;;21.70;38.10;;;;;;4972035;28;46255;-60
2022/12/14 14:39:01;;;;;;;1.50;1.38;;;21.80;38.00;;;;;;4987915;28;45156;-62
2022/12/14 14:41:48;;;;;;;1.88;1.40;;;21.80;38.10;;;;;;4973610;28;45218;-61
2022/12/14 14:44:35;;;;;;;1.63;1.13;;;21.90;37.70;;;;;;4990002;28;46332;-61
2022/12/14 14:47:00;;;;;;;1.63;1.15;;;22.00;37.80;;;;;;4985715;28;46002;-60
2022/12/14 14:49:32;;;;;;;1.95;1.25;;;22.00;37.90;;;;;;4974827;28;45523;-61
2022/12/14 14:52:36;;;;;;;1.92;1.20;;;22.10;37.60;;;;;;4965875;28;44677;-62
2022/12/14 14:55:30;;;;;;;1.73;1.27;;;22.10;37.50;;;;;;4970887;28;45484;-61
2022/12/14 14:58:04;;;;;;;1.85;1.40;;;22.10;37.40;;;;;;4987174;28;46098;-62
2022/12/14 15:00:31;;;;;;;1.77;1.50;;;22.10;37.60;;;;;;4973637;28;45286;-62
2022/12/14 15:02:57;;;;;;;1.67;1.35;;;22.10;37.70;;;;;;4957044;28;45440;-62
2022/12/14 15:05:32;;;;;;;1.85;1.38;;;22.10;37.70;;;;;;4973783;28;45267;-62
2022/12/14 15:07:58;;;;;;;1.30;1.10;;;22.10;37.50;;;;;;4947404;28;46098;-61
2022/12/14 15:10:37;;;;;;;1.38;1.08;;;22.10;37.70;;;;;;4951327;28;46339;-61
2022/12/14 15:13:05;;;;;;;1.90;1.20;;;22.00;37.50;;;;;;4972178;28;44787;-62
2022/12/14 15:15:44;;;;;;;1.65;1.38;;;21.90;37.90;;;;;;4966776;28;45279;-61
2022/12/14 15:18:23;;;;;;;1.33;1.23;;;21.80;37.90;;;;;;4971356;28;44971;-62
2022/12/14 15:21:00;;;;;;;1.90;1.55;;;21.90;38.10;;;;;;4973058;28;45375;-62
2022/12/14 15:23:52;;;;;;;2.00;1.52;;;22.00;37.90;;;;;;4975307;28;45450;-61
2022/12/14 15:26:27;;;;;;;1.25;1.15;;;22.00;37.60;;;;;;4948728;28;45332;-62
2022/12/14 15:28:54;;;;;;;1.40;1.30;;;22.10;37.70;;;;;;4988549;28;47269;-61
2022/12/14 15:31:38;;;;;;;2.38;1.35;;;22.10;37.70;;;;;;4966326;28;45202;-61
2022/12/14 15:34:04;;;;;;;2.15;1.52;;;22.20;37.40;;;;;;4962249;28;45063;-61
2022/12/14 15:36:31;;;;;;;1.48;1.38;;;22.20;37.60;;;;;;4932541;28;45479;-65
2022/12/14 15:38:57;;;;;;;1.67;1.42;;;22.20;37.50;;;;;;4963723;28;46116;-61
2022/12/14 15:41:25;;;;;;;1.20;1.10;;;22.20;37.50;;;;;;4996780;28;45249;-62
2022/12/14 15:43:51;;;;;;;1.67;1.30;;;22.30;37.60;;;;;;4988301;28;45512;-62
2022/12/14 15:46:27;;;;;;;2.20;1.70;;;22.30;37.60;;;;;;4955422;28;45729;-62
2022/12/14 15:48:55;;;;;;;1.65;1.40;;;22.30;37.60;;;;;;4956808;28;45900;-61
2022/12/14 15:51:22;;;;;;;1.60;1.40;;;22.30;37.60;;;;;;4952950;28;45245;-60
2022/12/14 15:53:49;;;;;;;1.70;1.30;;;22.20;37.60;;;;;;4961847;28;45174;-61
2022/12/14 15:56:21;;;;;;;1.45;1.30;;;22.10;37.60;;;;;;4964610;28;45367;-62
2022/12/14 15:58:47;;;;;;;1.52;1.27;;;22.00;37.80;;;;;;4957696;28;46558;-60
2022/12/14 16:01:23;;;;;;;2.05;1.50;;;21.80;37.90;;;;;;4942889;28;45249;-62
2022/12/14 16:03:50;;;;;;;2.28;1.40;;;21.70;38.10;;;;;;4958761;28;45417;-61
2022/12/14 16:06:16;;;;;;;2.17;1.63;;;21.50;38.40;;;;;;4961681;28;45586;-62
2022/12/14 16:09:05;;;;;;;1.83;1.30;;;21.40;38.60;;;;;;4955146;28;46873;-61
2022/12/14 16:11:55;;;;;;;2.13;1.70;;;21.30;38.80;;;;;;4955661;28;45707;-62
2022/12/14 16:14:42;;;;;;;1.60;1.40;;;21.20;38.90;;;;;;4977374;28;45050;-61
2022/12/14 16:17:12;;;;;;;1.98;1.70;;;21.10;39.00;;;;;;4967848;28;45029;-62
2022/12/14 16:19:38;;;;;;;1.75;1.40;;;21.00;39.10;;;;;;4971322;28;45846;-62
2022/12/14 16:22:39;;;;;;;2.53;1.70;;;20.90;39.20;;;;;;4979237;28;45165;-61
2022/12/14 16:25:06;;;;;;;2.35;1.52;;;20.80;39.20;;;;;;4901022;28;45514;-62
2022/12/14 16:27:35;;;;;;;1.95;1.60;;;20.70;39.40;;;;;;4954827;28;45641;-60
2022/12/14 16:30:26;;;;;;;2.35;1.60;;;20.70;39.60;;;;;;4941860;28;47166;-60
2022/12/14 16:33:03;;;;;;;1.70;1.35;;;20.60;39.70;;;;;;4981982;28;45003;-62
2022/12/14 16:35:29;;;;;;;1.92;1.52;;;20.50;39.80;;;;;;4926597;28;45752;-61
2022/12/14 16:38:02;;;;;;;2.00;1.52;;;20.40;39.90;;;;;;4976959;28;44672;-61
2022/12/14 16:40:33;;;;;;;1.48;1.33;;;20.30;39.90;;;;;;4966441;28;46152;-61
2022/12/14 16:42:59;;;;;;;1.30;1.15;;;20.30;40.00;;;;;;4962174;28;46086;-62
2022/12/14 16:45:42;;;;;;;1.95;1.58;;;20.10;40.00;;;;;;4994943;28;44733;-61
2022/12/14 16:48:13;;;;;;;2.65;1.42;;;20.10;40.20;;;;;;4988229;28;45235;-61
2022/12/14 16:50:39;;;;;;;2.63;1.77;;;20.00;40.30;;;;;;4943428;28;45416;-62
2022/12/14 16:53:22;;;;;;;2.10;1.50;;;19.90;40.40;;;;;;4970869;28;45226;-60
2022/12/14 16:56:15;;;;;;;1.50;1.23;;;19.80;40.60;;;;;;4957647;28;45206;-60
2022/12/14 16:59:00;;;;;;;1.92;1.58;;;19.70;40.60;;;;;;4964563;28;45412;-62
2022/12/14 17:01:26;;;;;;;1.65;1.35;;;19.70;40.80;;;;;;4971808;28;45299;-62
2022/12/14 17:03:57;;;;;;;2.38;1.73;;;19.60;40.80;;;;;;4986134;28;45282;-61
2022/12/14 17:06:24;;;;;;;1.73;1.25;;;19.50;40.90;;;;;;4934094;28;45931;-62
2022/12/14 17:08:49;;;;;;;2.05;1.52;;;19.40;41.00;;;;;;4970122;28;45488;-62
2022/12/14 17:11:15;;;;;;;2.15;1.60;;;19.40;41.10;;;;;;4970798;28;46195;-64
2022/12/14 17:13:41;;;;;;;1.88;1.73;;;19.30;41.20;;;;;;4969220;28;45617;-62
2022/12/14 17:16:07;;;;;;;2.83;2.05;;;19.20;41.20;;;;;;4959225;28;46056;-63
2022/12/14 17:18:36;;;;;;;2.10;1.80;;;19.20;41.30;;;;;;4970257;28;44718;-61
2022/12/14 17:21:01;;;;;;;2.22;1.67;;;19.10;42.00;;;;;;4940729;28;46915;-62
2022/12/14 17:23:27;;;;;;;2.30;1.70;;;19.10;41.50;;;;;;4971391;28;45058;-63
2022/12/14 17:25:52;;;;;;;1.85;1.40;;;19.00;41.50;;;;;;4979066;28;45268;-61